Time;durP1;ratioP1;P1;durP2;ratioP2;P2;SDS_P1;SDS_P2;PMS_P1;PMS_P2;Temp;Humidity;BMP_temperature;BMP_pressure;BME280_temperature;BME280_humidity;BME280_pressure;Samples;Min_cycle;Max_cycle;Signal;HPM_P1;HPM_P2
2023/08/28 00:01:09;;;;;;;9.50;4.32;;;;;;;;;;5031572;28;20073;-74
2023/08/28 00:03:35;;;;;;;7.55;4.30;;;;;;;;;;5033853;28;20072;-74
2023/08/28 00:06:01;;;;;;;6.10;4.55;;;;;;;;;;5032405;28;20476;-73
2023/08/28 00:08:27;;;;;;;9.95;4.47;;;;;;;;;;5034347;28;20026;-74
2023/08/28 00:10:53;;;;;;;10.00;5.25;;;;;;;;;;5033520;28;20526;-74
2023/08/28 00:13:19;;;;;;;9.77;4.65;;;;;;;;;;5034769;28;20037;-74
2023/08/28 00:15:45;;;;;;;8.38;5.32;;;;;;;;;;5032295;28;20021;-73
2023/08/28 00:18:11;;;;;;;9.60;5.20;;;;;;;;;;5035803;28;20025;-74
2023/08/28 00:20:37;;;;;;;6.60;4.72;;;;;;;;;;5043797;28;20030;-74
2023/08/28 00:23:03;;;;;;;6.90;4.90;;;;;;;;;;5042326;28;20111;-73
2023/08/28 00:25:29;;;;;;;7.38;5.40;;;;;;;;;;5036106;28;20110;-74
2023/08/28 00:27:55;;;;;;;7.97;5.70;;;;;;;;;;5033649;28;20384;-72
2023/08/28 00:30:21;;;;;;;12.93;5.55;;;;;;;;;;5032810;28;20029;-73
2023/08/28 00:32:47;;;;;;;8.15;5.63;;;;;;;;;;5035192;28;20509;-74
2023/08/28 00:35:13;;;;;;;8.50;5.78;;;;;;;;;;5032305;28;20101;-72
2023/08/28 00:37:40;;;;;;;9.45;5.57;;;;;;;;;;5032318;28;20013;-73
2023/08/28 00:40:07;;;;;;;7.32;5.35;;;;;;;;;;5032220;28;20037;-73
2023/08/28 00:42:33;;;;;;;9.88;5.80;;;;;;;;;;5036427;28;20384;-74
2023/08/28 00:44:59;;;;;;;12.65;5.80;;;;;;;;;;5033382;28;20040;-74
2023/08/28 00:47:25;;;;;;;10.55;5.80;;;;;;;;;;5032098;28;20026;-74
2023/08/28 00:49:52;;;;;;;9.57;5.78;;;;;;;;;;5033087;28;20391;-73
2023/08/28 00:52:18;;;;;;;9.95;5.57;;;;;;;;;;5037215;28;20026;-73
2023/08/28 00:54:44;;;;;;;11.40;5.63;;;;;;;;;;5038377;28;20026;-74
2023/08/28 00:57:10;;;;;;;10.00;5.45;;;;;;;;;;5032370;28;20044;-72
2023/08/28 00:59:36;;;;;;;11.98;5.68;;;;;;;;;;5032691;28;20030;-73
2023/08/28 01:02:05;;;;;;;10.05;6.00;;;;;;;;;;5033622;28;20026;-74
2023/08/28 01:04:31;;;;;;;10.20;5.38;;;;;;;;;;5033870;28;20044;-72
2023/08/28 01:07:15;;;;;;;9.95;5.53;;;;;;;;;;5032987;28;20030;-72
2023/08/28 01:09:59;;;;;;;8.57;5.50;;;;;;;;;;5032579;28;20451;-73
2023/08/28 01:12:44;;;;;;;8.13;5.07;;;;;;;;;;5035613;28;20430;-74
2023/08/28 01:15:13;;;;;;;8.73;5.55;;;;;;;;;;5035263;28;20087;-74
2023/08/28 01:17:39;;;;;;;11.20;5.22;;;;;;;;;;5037334;28;20086;-74
2023/08/28 01:20:07;;;;;;;11.45;5.68;;;;;;;;;;5038495;28;20479;-75
2023/08/28 01:22:36;;;;;;;9.43;5.40;;;;;;;;;;5034155;28;20038;-72
2023/08/28 01:25:10;;;;;;;13.07;5.82;;;;;;;;;;5036357;28;20101;-74
2023/08/28 01:27:37;;;;;;;8.52;5.45;;;;;;;;;;5036340;28;20021;-73
2023/08/28 01:30:10;;;;;;;10.27;5.63;;;;;;;;;;5035370;28;20025;-74
2023/08/28 01:32:36;;;;;;;11.48;5.80;;;;;;;;;;5034085;28;20567;-73
2023/08/28 01:35:04;;;;;;;16.63;5.90;;;;;;;;;;5035295;28;20468;-73
2023/08/28 01:37:35;;;;;;;11.43;5.38;;;;;;;;;;5035969;28;20032;-75
2023/08/28 01:40:05;;;;;;;8.57;5.18;;;;;;;;;;5041576;28;20026;-73
2023/08/28 01:42:33;;;;;;;11.63;4.95;;;;;;;;;;5038122;28;20447;-72
2023/08/28 01:45:00;;;;;;;9.00;5.20;;;;;;;;;;5035186;28;20029;-73
2023/08/28 01:47:27;;;;;;;9.45;5.63;;;;;;;;;;5036051;28;20079;-75
2023/08/28 01:49:56;;;;;;;8.95;5.65;;;;;;;;;;5035939;28;20025;-74
2023/08/28 01:52:22;;;;;;;11.52;6.03;;;;;;;;;;5035616;28;20029;-74
2023/08/28 01:54:48;;;;;;;11.10;5.63;;;;;;;;;;5034904;28;20029;-72
2023/08/28 01:57:14;;;;;;;10.60;4.68;;;;;;;;;;5034884;28;20152;-74
2023/08/28 01:59:40;;;;;;;13.63;5.50;;;;;;;;;;5035687;28;20049;-72
2023/08/28 02:02:06;;;;;;;10.38;5.40;;;;;;;;;;5034765;28;20484;-72
2023/08/28 02:04:32;;;;;;;11.00;5.13;;;;;;;;;;5034780;28;20030;-73
2023/08/28 02:06:58;;;;;;;7.95;5.13;;;;;;;;;;5034948;28;20032;-73
2023/08/28 02:09:23;;;;;;;9.43;4.70;;;;;;;;;;5034561;28;20025;-75
2023/08/28 02:11:50;;;;;;;12.32;4.57;;;;;;;;;;5034368;28;20088;-74
2023/08/28 02:14:16;;;;;;;9.65;4.80;;;;;;;;;;5034371;28;20112;-72
2023/08/28 02:16:42;;;;;;;14.15;5.00;;;;;;;;;;5034463;28;20013;-74
2023/08/28 02:19:08;;;;;;;10.88;5.40;;;;;;;;;;5034440;28;20045;-74
2023/08/28 02:21:34;;;;;;;11.50;5.20;;;;;;;;;;5033231;28;20530;-74
2023/08/28 02:24:00;;;;;;;11.15;5.40;;;;;;;;;;5033144;28;20017;-74
2023/08/28 02:26:26;;;;;;;9.73;5.20;;;;;;;;;;5034116;28;20034;-74
2023/08/28 02:28:52;;;;;;;11.10;4.82;;;;;;;;;;5033682;28;20460;-74
2023/08/28 02:31:18;;;;;;;10.23;5.22;;;;;;;;;;5034020;28;20049;-74
2023/08/28 02:33:44;;;;;;;11.55;4.50;;;;;;;;;;5018905;28;20022;-75
2023/08/28 02:36:10;;;;;;;9.88;4.97;;;;;;;;;;5018736;28;20036;-75
2023/08/28 02:38:36;;;;;;;12.02;4.30;;;;;;;;;;5030535;28;20014;-75
2023/08/28 02:41:07;;;;;;;10.60;4.65;;;;;;;;;;5024776;28;20107;-74
2023/08/28 02:43:33;;;;;;;10.07;3.95;;;;;;;;;;5032486;28;20025;-73
2023/08/28 02:46:00;;;;;;;14.77;4.07;;;;;;;;;;5033904;28;20040;-73
2023/08/28 02:48:26;;;;;;;14.65;4.03;;;;;;;;;;5017089;28;20029;-73
2023/08/28 02:50:52;;;;;;;7.25;4.45;;;;;;;;;;5033665;28;20075;-74
2023/08/28 02:53:17;;;;;;;9.55;3.95;;;;;;;;;;5034676;28;20043;-74
2023/08/28 02:56:03;;;;;;;7.75;3.90;;;;;;;;;;5034007;28;20032;-73
2023/08/28 02:58:29;;;;;;;9.65;3.90;;;;;;;;;;5029885;28;20041;-74
2023/08/28 03:00:55;;;;;;;7.90;3.97;;;;;;;;;;5033351;28;20031;-75
2023/08/28 03:03:22;;;;;;;9.77;3.92;;;;;;;;;;5023392;28;20034;-73
2023/08/28 03:05:48;;;;;;;11.35;3.67;;;;;;;;;;5014022;28;20026;-75
2023/08/28 03:08:14;;;;;;;8.95;3.80;;;;;;;;;;5034375;28;20037;-73
2023/08/28 03:10:40;;;;;;;8.00;3.88;;;;;;;;;;5018739;28;20029;-74
2023/08/28 03:13:06;;;;;;;7.90;3.78;;;;;;;;;;5032602;28;20065;-76
2023/08/28 03:15:32;;;;;;;9.75;3.60;;;;;;;;;;5033286;28;20033;-74
2023/08/28 03:17:58;;;;;;;12.40;4.57;;;;;;;;;;5019295;28;20130;-74
2023/08/28 03:20:24;;;;;;;8.55;3.78;;;;;;;;;;5029851;28;20557;-75
2023/08/28 03:22:50;;;;;;;8.15;3.90;;;;;;;;;;5027640;28;20048;-74
2023/08/28 03:25:16;;;;;;;7.10;3.85;;;;;;;;;;5032918;28;20026;-75
2023/08/28 03:27:42;;;;;;;6.45;3.50;;;;;;;;;;5032800;28;20033;-74
2023/08/28 03:30:09;;;;;;;6.75;3.35;;;;;;;;;;5032921;28;20022;-74
2023/08/28 03:32:35;;;;;;;10.10;3.65;;;;;;;;;;5024623;28;20033;-74
2023/08/28 03:35:01;;;;;;;7.75;3.70;;;;;;;;;;5013471;28;20026;-75
2023/08/28 03:37:27;;;;;;;7.90;3.47;;;;;;;;;;5031132;28;20117;-75
2023/08/28 03:39:53;;;;;;;9.95;3.90;;;;;;;;;;5025147;28;20065;-75
2023/08/28 03:42:19;;;;;;;11.20;4.07;;;;;;;;;;5031832;28;20060;-75
2023/08/28 03:44:45;;;;;;;6.93;3.97;;;;;;;;;;5032731;28;20383;-75
2023/08/28 03:47:11;;;;;;;7.50;3.92;;;;;;;;;;5034913;28;20056;-75
2023/08/28 03:49:37;;;;;;;11.80;3.85;;;;;;;;;;5034927;28;20491;-74
2023/08/28 03:52:03;;;;;;;8.40;4.35;;;;;;;;;;5036991;28;20080;-73
2023/08/28 03:54:29;;;;;;;9.85;3.40;;;;;;;;;;5030445;28;20203;-73
2023/08/28 03:56:55;;;;;;;7.72;3.83;;;;;;;;;;5032541;28;20065;-74
2023/08/28 03:59:21;;;;;;;10.40;3.20;;;;;;;;;;5032679;28;20017;-74
2023/08/28 04:01:48;;;;;;;7.38;3.42;;;;;;;;;;5032059;28;20056;-74
2023/08/28 04:04:14;;;;;;;12.02;3.90;;;;;;;;;;5032344;28;20037;-73
2023/08/28 04:06:40;;;;;;;10.27;3.70;;;;;;;;;;5032421;28;20022;-73
2023/08/28 04:09:06;;;;;;;10.88;3.65;;;;;;;;;;5035895;28;20399;-74
2023/08/28 04:11:32;;;;;;;8.27;3.90;;;;;;;;;;5040957;28;20468;-76
2023/08/28 04:13:58;;;;;;;13.75;4.85;;;;;;;;;;5036903;28;20029;-74
2023/08/28 04:16:24;;;;;;;12.57;4.50;;;;;;;;;;5033849;28;20104;-74
2023/08/28 04:18:50;;;;;;;6.78;3.67;;;;;;;;;;5032132;28;20057;-74
2023/08/28 04:21:16;;;;;;;13.52;4.85;;;;;;;;;;5032161;28;20025;-75
2023/08/28 04:23:42;;;;;;;7.20;4.80;;;;;;;;;;5032234;28;20033;-75
2023/08/28 04:26:07;;;;;;;7.57;5.43;;;;;;;;;;5032181;28;20029;-74
2023/08/28 04:28:33;;;;;;;11.38;5.43;;;;;;;;;;5032434;28;20375;-73
2023/08/28 04:30:59;;;;;;;10.80;5.30;;;;;;;;;;5031879;28;20028;-74
2023/08/28 04:33:26;;;;;;;12.25;5.65;;;;;;;;;;5032982;28;20055;-74
2023/08/28 04:35:52;;;;;;;10.70;6.00;;;;;;;;;;5031964;28;20079;-74
2023/08/28 04:38:18;;;;;;;12.50;6.53;;;;;;;;;;5031962;28;20026;-72
2023/08/28 04:40:44;;;;;;;9.07;5.50;;;;;;;;;;5031740;28;20028;-72
2023/08/28 04:43:10;;;;;;;13.70;6.05;;;;;;;;;;5033139;28;20105;-71
2023/08/28 04:45:36;;;;;;;10.38;5.03;;;;;;;;;;5028830;28;20451;-72
2023/08/28 04:48:01;;;;;;;15.00;5.65;;;;;;;;;;5030608;28;20029;-74
2023/08/28 04:50:27;;;;;;;8.77;4.70;;;;;;;;;;5031000;28;20037;-74
2023/08/28 04:52:53;;;;;;;15.15;5.32;;;;;;;;;;5030642;28;20116;-72
2023/08/28 04:55:19;;;;;;;9.30;5.78;;;;;;;;;;5031137;28;20029;-71
2023/08/28 04:57:45;;;;;;;12.10;5.80;;;;;;;;;;5031240;28;20021;-72
2023/08/28 05:00:11;;;;;;;12.93;6.95;;;;;;;;;;5031405;28;20364;-73
2023/08/28 05:02:37;;;;;;;16.85;8.07;;;;;;;;;;5031219;28;20022;-76
2023/08/28 05:05:04;;;;;;;19.30;7.93;;;;;;;;;;5032047;28;20032;-73
2023/08/28 05:07:30;;;;;;;16.63;11.45;;;;;;;;;;5031716;28;20571;-71
2023/08/28 05:09:56;;;;;;;14.73;9.88;;;;;;;;;;5031556;28;20025;-70
2023/08/28 05:12:22;;;;;;;13.32;10.50;;;;;;;;;;5030916;28;20045;-72
2023/08/28 05:14:48;;;;;;;15.45;9.30;;;;;;;;;;5031121;28;20037;-72
2023/08/28 05:17:13;;;;;;;16.80;9.93;;;;;;;;;;5032702;28;20357;-72
2023/08/28 05:19:39;;;;;;;14.00;7.90;;;;;;;;;;5031470;28;20029;-74
2023/08/28 05:22:05;;;;;;;12.70;6.60;;;;;;;;;;5030675;28;20029;-75
2023/08/28 05:24:31;;;;;;;14.85;6.43;;;;;;;;;;5031853;28;20022;-72
2023/08/28 05:26:57;;;;;;;9.60;5.65;;;;;;;;;;5031318;28;20051;-72
2023/08/28 05:29:23;;;;;;;14.07;5.32;;;;;;;;;;5031069;28;20418;-71
2023/08/28 05:31:49;;;;;;;12.70;5.28;;;;;;;;;;5027550;28;20057;-71
2023/08/28 05:34:15;;;;;;;17.35;5.90;;;;;;;;;;5033780;28;20021;-71
2023/08/28 05:36:41;;;;;;;10.02;5.07;;;;;;;;;;5030987;28;20095;-69
2023/08/28 05:39:07;;;;;;;10.82;4.88;;;;;;;;;;5030663;28;20495;-73
2023/08/28 05:41:33;;;;;;;9.65;5.50;;;;;;;;;;5028709;28;20379;-73
2023/08/28 05:44:00;;;;;;;13.05;5.20;;;;;;;;;;5030086;28;20013;-71
2023/08/28 05:46:26;;;;;;;12.18;5.28;;;;;;;;;;5031182;28;20018;-71
2023/08/28 05:48:52;;;;;;;10.48;4.78;;;;;;;;;;5024176;28;20037;-72
2023/08/28 05:51:17;;;;;;;11.82;5.10;;;;;;;;;;5030053;28;20373;-72
2023/08/28 05:53:43;;;;;;;12.65;5.03;;;;;;;;;;5030200;28;20068;-71
2023/08/28 05:56:09;;;;;;;15.93;4.53;;;;;;;;;;5029086;28;20106;-73
2023/08/28 05:58:35;;;;;;;12.05;4.32;;;;;;;;;;5033655;28;20411;-74
2023/08/28 06:01:01;;;;;;;9.27;4.22;;;;;;;;;;5034043;28;20111;-74
2023/08/28 06:03:28;;;;;;;8.27;4.15;;;;;;;;;;5033112;28;20429;-73
2023/08/28 06:05:55;;;;;;;10.05;4.97;;;;;;;;;;5032544;28;20483;-72
2023/08/28 06:08:21;;;;;;;10.75;4.35;;;;;;;;;;5034361;28;20049;-71
2023/08/28 06:10:47;;;;;;;12.55;4.03;;;;;;;;;;5034170;28;20029;-73
2023/08/28 06:13:13;;;;;;;9.00;3.28;;;;;;;;;;5033333;28;20017;-72
2023/08/28 06:15:39;;;;;;;10.85;3.38;;;;;;;;;;5034371;28;20033;-73
2023/08/28 06:18:05;;;;;;;13.93;3.45;;;;;;;;;;5034316;28;20472;-72
2023/08/28 06:20:32;;;;;;;13.27;3.10;;;;;;;;;;5041449;28;20044;-74
2023/08/28 06:22:58;;;;;;;11.88;3.08;;;;;;;;;;5039985;28;20104;-75
2023/08/28 06:25:24;;;;;;;8.38;2.88;;;;;;;;;;5041397;28;20052;-73
2023/08/28 06:27:50;;;;;;;8.02;2.88;;;;;;;;;;5034078;28;20469;-74
2023/08/28 06:30:16;;;;;;;11.57;3.42;;;;;;;;;;5035650;28;20053;-71
2023/08/28 06:32:42;;;;;;;13.75;3.42;;;;;;;;;;5033531;28;20509;-73
2023/08/28 06:35:08;;;;;;;6.93;2.67;;;;;;;;;;5034627;28;20025;-75
2023/08/28 06:37:34;;;;;;;9.32;2.50;;;;;;;;;;5034761;28;20026;-75
2023/08/28 06:40:02;;;;;;;9.50;2.80;;;;;;;;;;5036412;28;20032;-75
2023/08/28 06:42:28;;;;;;;10.38;2.92;;;;;;;;;;5036127;28;20111;-74
2023/08/28 06:44:54;;;;;;;7.55;2.47;;;;;;;;;;5036400;28;20037;-70
2023/08/28 06:47:20;;;;;;;12.15;2.67;;;;;;;;;;5033968;28;20025;-71
2023/08/28 06:49:46;;;;;;;9.30;2.55;;;;;;;;;;5034093;28;20033;-74
2023/08/28 06:52:12;;;;;;;8.57;2.72;;;;;;;;;;5033655;28;20026;-74
2023/08/28 06:54:38;;;;;;;3.97;1.90;;;;;;;;;;5033570;28;20132;-72
2023/08/28 06:57:05;;;;;;;9.57;2.20;;;;;;;;;;5033488;28;20029;-72
2023/08/28 06:59:31;;;;;;;5.47;1.98;;;;;;;;;;5034171;28;20021;-73
2023/08/28 07:01:56;;;;;;;11.63;2.20;;;;;;;;;;5032660;28;20056;-73
2023/08/28 07:04:23;;;;;;;7.20;2.00;;;;;;;;;;5034514;28;20022;-72
2023/08/28 07:06:49;;;;;;;7.85;2.20;;;;;;;;;;5033900;28;20033;-72
2023/08/28 07:09:15;;;;;;;6.63;1.75;;;;;;;;;;5032700;28;20391;-73
2023/08/28 07:11:41;;;;;;;7.15;2.00;;;;;;;;;;5036131;28;20506;-73
2023/08/28 07:14:07;;;;;;;7.03;2.10;;;;;;;;;;5033625;28;20080;-73
2023/08/28 07:16:33;;;;;;;7.15;2.00;;;;;;;;;;5033645;28;20368;-74
2023/08/28 07:19:00;;;;;;;9.27;2.20;;;;;;;;;;5033170;28;20030;-73
2023/08/28 07:21:26;;;;;;;9.80;2.33;;;;;;;;;;5032871;28;20388;-73
2023/08/28 07:23:52;;;;;;;11.95;2.20;;;;;;;;;;5033713;28;20055;-71
2023/08/28 07:26:18;;;;;;;10.95;2.10;;;;;;;;;;5035342;28;20026;-71
2023/08/28 07:28:46;;;;;;;7.57;1.65;;;;;;;;;;5033022;28;20021;-69
2023/08/28 07:31:12;;;;;;;9.98;1.77;;;;;;;;;;5032888;28;20547;-71
2023/08/28 07:33:38;;;;;;;7.93;2.10;;;;;;;;;;5033024;28;20030;-72
2023/08/28 07:36:04;;;;;;;5.80;1.55;;;;;;;;;;5033860;28;20464;-74
2023/08/28 07:38:30;;;;;;;5.20;1.48;;;;;;;;;;5032596;28;20037;-72
2023/08/28 07:40:56;;;;;;;6.30;1.90;;;;;;;;;;5032554;28;20484;-71
2023/08/28 07:43:22;;;;;;;9.32;1.63;;;;;;;;;;5032169;28;20065;-72
2023/08/28 07:45:48;;;;;;;12.48;2.05;;;;;;;;;;5032648;28;20368;-71
2023/08/28 07:48:14;;;;;;;5.07;1.40;;;;;;;;;;5034378;28;20036;-74
2023/08/28 07:50:40;;;;;;;7.55;1.40;;;;;;;;;;5033055;28;20025;-73
2023/08/28 07:53:06;;;;;;;9.75;1.63;;;;;;;;;;5032185;28;20053;-71
2023/08/28 07:55:32;;;;;;;7.47;1.80;;;;;;;;;;5032544;28;20215;-72
2023/08/28 07:57:58;;;;;;;7.15;1.63;;;;;;;;;;5032643;28;20040;-72
2023/08/28 08:00:24;;;;;;;8.35;1.73;;;;;;;;;;5033304;28;20060;-72
2023/08/28 08:02:55;;;;;;;7.32;1.50;;;;;;;;;;5032925;28;20033;-71
2023/08/28 08:05:21;;;;;;;8.63;1.17;;;;;;;;;;5031809;28;20407;-71
2023/08/28 08:07:47;;;;;;;6.65;1.10;;;;;;;;;;5028291;28;20037;-74
2023/08/28 08:10:14;;;;;;;6.07;1.33;;;;;;;;;;5012191;28;20048;-71
2023/08/28 08:12:40;;;;;;;7.57;1.63;;;;;;;;;;5012434;28;20080;-71
2023/08/28 08:15:07;;;;;;;7.50;1.42;;;;;;;;;;5023760;28;20434;-73
2023/08/28 08:17:36;;;;;;;10.07;1.20;;;;;;;;;;5031963;28;20033;-75
2023/08/28 08:20:03;;;;;;;6.85;1.75;;;;;;;;;;5013726;28;20049;-70
2023/08/28 08:22:29;;;;;;;14.13;2.03;;;;;;;;;;5030900;28;20025;-73
2023/08/28 08:24:55;;;;;;;4.85;1.15;;;;;;;;;;5031808;28;20033;-71
2023/08/28 08:27:21;;;;;;;4.85;1.70;;;;;;;;;;5024298;28;20364;-71
2023/08/28 08:29:48;;;;;;;4.97;1.17;;;;;;;;;;5014843;28;20037;-73
2023/08/28 08:32:14;;;;;;;6.47;1.10;;;;;;;;;;5027122;28;20026;-71
2023/08/28 08:34:40;;;;;;;9.77;1.25;;;;;;;;;;5011699;28;20026;-74
2023/08/28 08:37:06;;;;;;;4.43;1.40;;;;;;;;;;5012355;28;20495;-74
2023/08/28 08:39:32;;;;;;;6.78;1.45;;;;;;;;;;5011840;28;20048;-72
2023/08/28 08:41:58;;;;;;;9.07;2.65;;;;;;;;;;5012473;28;20372;-70
2023/08/28 08:44:24;;;;;;;7.55;1.50;;;;;;;;;;5010694;28;20029;-72
2023/08/28 08:46:52;;;;;;;11.18;1.50;;;;;;;;;;5011871;28;20472;-73
2023/08/28 08:49:20;;;;;;;5.05;1.60;;;;;;;;;;5011157;28;20030;-73
2023/08/28 08:51:46;;;;;;;7.70;2.05;;;;;;;;;;5011293;28;20026;-71
2023/08/28 08:54:25;;;;;;;4.95;1.30;;;;;;;;;;5011598;28;20028;-74
2023/08/28 08:56:54;;;;;;;6.88;1.50;;;;;;;;;;5011908;28;20496;-71
2023/08/28 08:59:23;;;;;;;4.43;1.13;;;;;;;;;;5011861;28;20029;-72
2023/08/28 09:01:49;;;;;;;4.07;1.10;;;;;;;;;;5012134;28;20476;-73
2023/08/28 09:04:15;;;;;;;7.68;1.45;;;;;;;;;;5012423;28;20112;-73
2023/08/28 09:06:41;;;;;;;6.80;1.70;;;;;;;;;;5012090;28;20096;-74
2023/08/28 09:09:11;;;;;;;8.85;1.63;;;;;;;;;;5012625;28;20164;-76
2023/08/28 09:11:40;;;;;;;6.82;1.60;;;;;;;;;;5033680;28;20127;-74
2023/08/28 09:14:06;;;;;;;7.68;1.50;;;;;;;;;;5018401;28;20088;-75
2023/08/28 09:16:34;;;;;;;8.20;1.58;;;;;;;;;;5015804;28;20029;-73
2023/08/28 09:19:00;;;;;;;6.90;1.42;;;;;;;;;;5011694;28;20529;-69
2023/08/28 09:21:27;;;;;;;6.43;1.35;;;;;;;;;;5013754;28;20535;-72
2023/08/28 09:23:54;;;;;;;7.03;1.45;;;;;;;;;;5011606;28;20054;-73
2023/08/28 09:26:21;;;;;;;4.13;1.40;;;;;;;;;;5011520;28;20029;-72
2023/08/28 09:29:01;;;;;;;6.88;1.50;;;;;;;;;;5012113;28;20111;-73
2023/08/28 09:31:31;;;;;;;4.65;1.20;;;;;;;;;;5012951;28;20038;-69
2023/08/28 09:33:57;;;;;;;8.80;1.55;;;;;;;;;;5016249;28;20114;-71
2023/08/28 09:36:25;;;;;;;10.77;1.88;;;;;;;;;;5015406;28;20079;-72
2023/08/28 09:38:51;;;;;;;8.02;1.98;;;;;;;;;;5015375;28;20357;-71
2023/08/28 09:41:17;;;;;;;5.28;1.30;;;;;;;;;;5015677;28;20076;-73
2023/08/28 09:43:43;;;;;;;8.50;1.38;;;;;;;;;;5016912;28;20449;-72
2023/08/28 09:46:09;;;;;;;7.47;1.35;;;;;;;;;;5015905;28;20416;-72
2023/08/28 09:48:35;;;;;;;5.40;1.33;;;;;;;;;;5015000;28;20037;-75
2023/08/28 09:51:03;;;;;;;7.45;1.30;;;;;;;;;;5029978;28;20045;-73
2023/08/28 09:53:30;;;;;;;7.00;1.48;;;;;;;;;;5014594;28;20100;-73
2023/08/28 09:55:56;;;;;;;11.48;1.48;;;;;;;;;;5015115;28;20026;-73
2023/08/28 09:58:26;;;;;;;8.77;1.40;;;;;;;;;;5014844;28;20481;-72
2023/08/28 10:00:52;;;;;;;7.90;1.40;;;;;;;;;;5014969;28;20018;-73
2023/08/28 10:03:20;;;;;;;6.10;1.30;;;;;;;;;;5014463;28;20030;-74
2023/08/28 10:05:47;;;;;;;8.18;1.35;;;;;;;;;;5014986;28;20035;-75
2023/08/28 10:08:15;;;;;;;4.13;1.27;;;;;;;;;;5015806;28;20427;-72
2023/08/28 10:10:42;;;;;;;7.80;1.10;;;;;;;;;;5014669;28;20030;-70
2023/08/28 10:13:14;;;;;;;4.97;1.30;;;;;;;;;;5014363;28;20021;-73
2023/08/28 10:16:01;;;;;;;3.33;1.30;;;;;;;;;;5014928;28;20213;-72
2023/08/28 10:18:33;;;;;;;6.15;1.30;;;;;;;;;;5014031;28;20049;-72
2023/08/28 10:20:59;;;;;;;7.30;2.10;;;;;;;;;;5014353;28;20099;-73
2023/08/28 10:23:25;;;;;;;6.95;1.10;;;;;;;;;;5013729;28;20030;-72
2023/08/28 10:25:53;;;;;;;5.50;1.20;;;;;;;;;;5014692;28;20026;-72
2023/08/28 10:28:21;;;;;;;5.78;1.52;;;;;;;;;;5014249;28;20462;-72
2023/08/28 10:30:48;;;;;;;5.90;1.30;;;;;;;;;;5015094;28;20022;-71
2023/08/28 10:33:15;;;;;;;4.30;1.70;;;;;;;;;;5013665;28;20029;-72
2023/08/28 10:35:44;;;;;;;4.20;1.25;;;;;;;;;;5013850;28;20018;-71
2023/08/28 10:38:11;;;;;;;6.40;1.33;;;;;;;;;;5014099;28;20026;-74
2023/08/28 10:40:37;;;;;;;6.05;1.42;;;;;;;;;;5014382;28;20022;-74
2023/08/28 10:43:04;;;;;;;4.20;1.67;;;;;;;;;;5012758;28;20036;-71
2023/08/28 10:45:30;;;;;;;9.45;1.42;;;;;;;;;;5013612;28;20110;-72
2023/08/28 10:47:56;;;;;;;4.85;1.10;;;;;;;;;;5013637;28;20041;-73
2023/08/28 10:50:22;;;;;;;5.80;1.23;;;;;;;;;;5014011;28;20026;-71
2023/08/28 10:52:48;;;;;;;2.55;1.00;;;;;;;;;;5013662;28;20053;-70
2023/08/28 10:55:19;;;;;;;5.43;1.40;;;;;;;;;;5013753;28;20025;-73
2023/08/28 10:57:49;;;;;;;6.20;1.88;;;;;;;;;;5013444;28;20054;-72
2023/08/28 11:00:18;;;;;;;4.60;1.52;;;;;;;;;;5013645;28;20033;-72
2023/08/28 11:03:18;;;;;;;4.28;1.30;;;;;;;;;;5013650;28;20030;-72
2023/08/28 11:05:44;;;;;;;6.00;1.48;;;;;;;;;;5002051;28;20433;-71
2023/08/28 11:08:11;;;;;;;5.60;1.25;;;;;;;;;;5020209;28;20036;-71
2023/08/28 11:10:38;;;;;;;4.30;1.83;;;;;;;;;;5013355;28;20041;-74
2023/08/28 11:13:05;;;;;;;4.22;1.00;;;;;;;;;;5013097;28;20068;-73
2023/08/28 11:15:41;;;;;;;8.30;1.85;;;;;;;;;;5013467;28;20137;-74
2023/08/28 11:18:13;;;;;;;5.18;1.20;;;;;;;;;;5013877;28;20029;-72
2023/08/28 11:20:39;;;;;;;5.80;1.38;;;;;;;;;;5013497;28;20037;-74
2023/08/28 11:23:06;;;;;;;7.22;1.67;;;;;;;;;;5028611;28;20030;-72
2023/08/28 11:25:36;;;;;;;5.13;2.15;;;;;;;;;;5013061;28;20045;-71
2023/08/28 11:28:03;;;;;;;6.32;2.50;;;;;;;;;;5013197;28;20037;-71
2023/08/28 11:30:30;;;;;;;5.60;1.20;;;;;;;;;;5014915;28;20048;-72
2023/08/28 11:32:56;;;;;;;2.08;1.30;;;;;;;;;;5033119;28;20484;-74
2023/08/28 11:35:23;;;;;;;6.72;1.30;;;;;;;;;;5034188;28;20017;-74
2023/08/28 11:37:57;;;;;;;3.13;1.10;;;;;;;;;;5032932;28;20028;-72
2023/08/28 11:40:24;;;;;;;5.37;1.23;;;;;;;;;;5030937;28;20357;-71
2023/08/28 11:42:50;;;;;;;2.65;1.20;;;;;;;;;;5031725;28;20035;-71
2023/08/28 11:45:23;;;;;;;5.50;1.38;;;;;;;;;;5044509;28;20033;-73
2023/08/28 11:47:50;;;;;;;6.10;1.60;;;;;;;;;;5052980;28;20040;-72
2023/08/28 11:50:18;;;;;;;3.50;0.88;;;;;;;;;;5052235;28;20036;-73
2023/08/28 11:52:48;;;;;;;2.53;0.90;;;;;;;;;;5052458;28;20029;-70
2023/08/28 11:55:14;;;;;;;6.07;1.50;;;;;;;;;;5053796;28;20095;-74
2023/08/28 11:57:40;;;;;;;4.10;1.17;;;;;;;;;;5056567;28;20036;-71
2023/08/28 12:00:11;;;;;;;6.57;1.45;;;;;;;;;;5053868;28;20036;-72
2023/08/28 12:02:37;;;;;;;3.85;1.02;;;;;;;;;;5052014;28;20356;-72
2023/08/28 12:05:04;;;;;;;5.35;1.30;;;;;;;;;;5051488;28;20075;-73
2023/08/28 12:07:30;;;;;;;2.97;1.23;;;;;;;;;;5050341;28;20032;-73
2023/08/28 12:09:57;;;;;;;3.22;1.25;;;;;;;;;;5051530;28;20029;-74
2023/08/28 12:12:23;;;;;;;4.32;1.55;;;;;;;;;;5051131;28;20021;-73
2023/08/28 12:14:49;;;;;;;4.25;1.02;;;;;;;;;;5050958;28;20387;-71
2023/08/28 12:17:15;;;;;;;4.00;0.93;;;;;;;;;;5051885;28;20045;-72
2023/08/28 12:19:41;;;;;;;6.20;1.00;;;;;;;;;;5051878;28;20059;-72
2023/08/28 12:22:07;;;;;;;7.70;1.70;;;;;;;;;;5051560;28;20538;-71
2023/08/28 12:24:34;;;;;;;2.63;1.15;;;;;;;;;;5051824;28;20086;-72
2023/08/28 12:27:00;;;;;;;4.93;1.10;;;;;;;;;;5051734;28;20109;-80
2023/08/28 12:29:26;;;;;;;4.35;1.90;;;;;;;;;;5051429;28;20025;-76
2023/08/28 12:31:52;;;;;;;4.97;1.00;;;;;;;;;;5052853;28;20417;-74
2023/08/28 12:34:19;;;;;;;2.22;1.00;;;;;;;;;;5052026;28;20028;-74
2023/08/28 12:36:47;;;;;;;3.28;0.90;;;;;;;;;;5055241;28;20021;-77
2023/08/28 12:39:17;;;;;;;6.63;1.00;;;;;;;;;;5056185;28;20028;-78
2023/08/28 12:41:52;;;;;;;6.22;1.35;;;;;;;;;;5056782;28;20028;-76
2023/08/28 12:44:19;;;;;;;3.08;1.10;;;;;;;;;;5056659;28;20024;-75
2023/08/28 12:46:45;;;;;;;3.92;1.20;;;;;;;;;;5050406;28;20017;-74
2023/08/28 12:49:12;;;;;;;2.72;0.90;;;;;;;;;;5052419;28;20025;-72
2023/08/28 12:51:39;;;;;;;3.45;1.02;;;;;;;;;;5056243;28;20043;-72
2023/08/28 12:54:06;;;;;;;8.45;1.60;;;;;;;;;;5054488;28;20021;-71
2023/08/28 12:56:34;;;;;;;2.25;0.98;;;;;;;;;;5053150;28;20474;-72
2023/08/28 12:59:00;;;;;;;4.25;1.20;;;;;;;;;;5045926;28;20033;-74
2023/08/28 13:01:26;;;;;;;3.42;1.30;;;;;;;;;;5031046;28;20018;-73
2023/08/28 13:03:53;;;;;;;4.80;1.35;;;;;;;;;;5031070;28;20052;-73
2023/08/28 13:06:19;;;;;;;6.47;1.80;;;;;;;;;;5034222;28;20026;-74
2023/08/28 13:08:45;;;;;;;3.65;1.08;;;;;;;;;;5037033;28;20059;-73
2023/08/28 13:11:11;;;;;;;4.93;0.88;;;;;;;;;;5036034;28;20025;-74
2023/08/28 13:13:37;;;;;;;5.18;1.20;;;;;;;;;;5035887;28;20490;-72
2023/08/28 13:16:03;;;;;;;5.70;1.13;;;;;;;;;;5032571;28;20026;-73
2023/08/28 13:18:29;;;;;;;3.53;1.10;;;;;;;;;;5035012;28;20024;-73
2023/08/28 13:20:55;;;;;;;2.25;0.90;;;;;;;;;;5034939;28;20080;-73
2023/08/28 13:23:21;;;;;;;1.38;0.70;;;;;;;;;;5033883;28;20029;-72
2023/08/28 13:25:47;;;;;;;6.53;1.15;;;;;;;;;;5035055;28;20503;-72
2023/08/28 13:28:14;;;;;;;3.38;1.08;;;;;;;;;;5034008;28;20033;-72
2023/08/28 13:30:40;;;;;;;6.80;1.10;;;;;;;;;;5034668;28;20044;-72
2023/08/28 13:33:06;;;;;;;2.53;1.20;;;;;;;;;;5033990;28;20037;-73
2023/08/28 13:35:33;;;;;;;3.72;0.88;;;;;;;;;;5033611;28;20097;-72
2023/08/28 13:37:59;;;;;;;1.77;0.80;;;;;;;;;;5034722;28;20071;-71
2023/08/28 13:40:26;;;;;;;3.30;1.08;;;;;;;;;;5030832;28;20049;-72
2023/08/28 13:42:53;;;;;;;6.43;1.15;;;;;;;;;;5029277;28;20030;-71
2023/08/28 13:45:19;;;;;;;3.50;1.20;;;;;;;;;;5034288;28;20026;-71
2023/08/28 13:47:45;;;;;;;1.45;0.80;;;;;;;;;;5034378;28;20162;-72
2023/08/28 13:50:11;;;;;;;4.53;1.63;;;;;;;;;;5033237;28;20033;-75
2023/08/28 13:52:37;;;;;;;3.38;1.25;;;;;;;;;;5033709;28;20550;-73
2023/08/28 13:55:06;;;;;;;2.03;0.90;;;;;;;;;;5034102;28;20148;-71
2023/08/28 13:57:32;;;;;;;3.10;1.08;;;;;;;;;;5032450;28;20017;-71
2023/08/28 13:59:59;;;;;;;4.63;1.00;;;;;;;;;;5034349;28;20054;-72
2023/08/28 14:02:26;;;;;;;2.00;0.80;;;;;;;;;;5033742;28;20025;-74
2023/08/28 14:04:52;;;;;;;3.38;1.27;;;;;;;;;;5034387;28;20104;-74
2023/08/28 14:07:18;;;;;;;2.83;1.30;;;;;;;;;;5034514;28;20040;-72
2023/08/28 14:09:44;;;;;;;2.65;1.08;;;;;;;;;;5034444;28;20029;-72
2023/08/28 14:12:10;;;;;;;3.17;1.40;;;;;;;;;;5033961;28;20033;-72
2023/08/28 14:14:36;;;;;;;2.33;0.90;;;;;;;;;;5034262;28;20041;-72
2023/08/28 14:17:03;;;;;;;4.00;0.93;;;;;;;;;;5034078;28;20069;-73
2023/08/28 14:19:29;;;;;;;5.43;1.00;;;;;;;;;;5033858;28;20041;-73
2023/08/28 14:21:55;;;;;;;4.05;1.20;;;;;;;;;;5034122;28;20068;-72
2023/08/28 14:24:20;;;;;;;2.72;1.10;;;;;;;;;;5034277;28;20480;-74
2023/08/28 14:26:47;;;;;;;9.68;1.30;;;;;;;;;;5033905;28;20038;-74
2023/08/28 14:29:13;;;;;;;4.00;1.30;;;;;;;;;;5033825;28;20029;-74
2023/08/28 14:31:39;;;;;;;1.95;0.90;;;;;;;;;;5035375;28;20133;-74
2023/08/28 14:34:05;;;;;;;4.32;0.77;;;;;;;;;;5033507;28;20022;-74
2023/08/28 14:36:31;;;;;;;3.45;1.00;;;;;;;;;;5036262;28;20022;-73